sensor_id;sensor_type;location;lat;lon;timestamp;temperature;humidity
7174;DHT22;3628;48.654;8.932;2024-03-08T00:00:15;2.90;99.90
7174;DHT22;3628;48.654;8.932;2024-03-08T00:02:47;2.90;99.90
7174;DHT22;3628;48.654;8.932;2024-03-08T00:05:14;2.80;99.90
7174;DHT22;3628;48.654;8.932;2024-03-08T00:07:40;2.80;99.90
7174;DHT22;3628;48.654;8.932;2024-03-08T00:10:08;2.80;99.90
7174;DHT22;3628;48.654;8.932;2024-03-08T00:12:41;2.70;99.90
7174;DHT22;3628;48.654;8.932;2024-03-08T00:15:10;2.70;99.90
7174;DHT22;3628;48.654;8.932;2024-03-08T00:17:36;2.70;99.90
7174;DHT22;3628;48.654;8.932;2024-03-08T00:20:03;2.70;99.90
7174;DHT22;3628;48.654;8.932;2024-03-08T00:22:34;2.60;99.90
7174;DHT22;3628;48.654;8.932;2024-03-08T00:24:59;2.60;99.90
7174;DHT22;3628;48.654;8.932;2024-03-08T00:27:25;2.60;99.90
7174;DHT22;3628;48.654;8.932;2024-03-08T00:29:50;2.60;99.90
7174;DHT22;3628;48.654;8.932;2024-03-08T00:32:16;2.50;99.90
7174;DHT22;3628;48.654;8.932;2024-03-08T00:34:42;2.50;99.90
7174;DHT22;3628;48.654;8.932;2024-03-08T00:37:08;2.50;99.90
7174;DHT22;3628;48.654;8.932;2024-03-08T00:39:34;2.50;99.90
7174;DHT22;3628;48.654;8.932;2024-03-08T00:41:59;2.50;99.90
7174;DHT22;3628;48.654;8.932;2024-03-08T00:44:25;2.50;99.90
7174;DHT22;3628;48.654;8.932;2024-03-08T00:46:51;2.50;99.90
7174;DHT22;3628;48.654;8.932;2024-03-08T00:49:18;2.50;99.90
7174;DHT22;3628;48.654;8.932;2024-03-08T00:51:43;2.50;99.90
7174;DHT22;3628;48.654;8.932;2024-03-08T00:54:09;2.50;99.90
7174;DHT22;3628;48.654;8.932;2024-03-08T00:56:34;2.40;99.90
7174;DHT22;3628;48.654;8.932;2024-03-08T00:59:01;2.40;99.90
7174;DHT22;3628;48.654;8.932;2024-03-08T01:01:28;2.40;99.90
7174;DHT22;3628;48.654;8.932;2024-03-08T01:03:54;2.30;99.90
7174;DHT22;3628;48.654;8.932;2024-03-08T01:06:19;2.30;99.90
7174;DHT22;3628;48.654;8.932;2024-03-08T01:08:45;2.30;99.90
7174;DHT22;3628;48.654;8.932;2024-03-08T01:11:13;2.30;99.90
7174;DHT22;3628;48.654;8.932;2024-03-08T01:13:39;2.30;99.90
7174;DHT22;3628;48.654;8.932;2024-03-08T01:16:05;2.20;99.90
7174;DHT22;3628;48.654;8.932;2024-03-08T01:18:31;2.20;99.90
7174;DHT22;3628;48.654;8.932;2024-03-08T01:20:57;2.20;99.90
7174;DHT22;3628;48.654;8.932;2024-03-08T01:23:22;2.10;99.90
7174;DHT22;3628;48.654;8.932;2024-03-08T01:25:48;2.10;99.90
7174;DHT22;3628;48.654;8.932;2024-03-08T01:28:17;2.00;99.90
7174;DHT22;3628;48.654;8.932;2024-03-08T01:30:42;2.00;99.90
7174;DHT22;3628;48.654;8.932;2024-03-08T01:33:08;2.00;99.90
7174;DHT22;3628;48.654;8.932;2024-03-08T01:35:34;1.90;99.90
7174;DHT22;3628;48.654;8.932;2024-03-08T01:37:59;1.90;99.90
7174;DHT22;3628;48.654;8.932;2024-03-08T01:40:25;1.80;99.90
7174;DHT22;3628;48.654;8.932;2024-03-08T01:42:50;1.70;99.90
7174;DHT22;3628;48.654;8.932;2024-03-08T01:45:16;1.70;99.90
7174;DHT22;3628;48.654;8.932;2024-03-08T01:47:42;1.70;99.90
7174;DHT22;3628;48.654;8.932;2024-03-08T01:50:07;1.70;99.90
7174;DHT22;3628;48.654;8.932;2024-03-08T01:52:34;1.60;99.90
7174;DHT22;3628;48.654;8.932;2024-03-08T01:55:01;1.60;99.90
7174;DHT22;3628;48.654;8.932;2024-03-08T01:57:31;1.50;99.90
7174;DHT22;3628;48.654;8.932;2024-03-08T01:59:57;1.50;99.90
7174;DHT22;3628;48.654;8.932;2024-03-08T02:02:22;1.50;99.90
7174;DHT22;3628;48.654;8.932;2024-03-08T02:04:48;1.40;99.90
7174;DHT22;3628;48.654;8.932;2024-03-08T02:07:14;1.40;99.90
7174;DHT22;3628;48.654;8.932;2024-03-08T02:09:40;1.40;99.90
7174;DHT22;3628;48.654;8.932;2024-03-08T02:12:06;1.30;99.90
7174;DHT22;3628;48.654;8.932;2024-03-08T02:14:33;1.30;99.90
7174;DHT22;3628;48.654;8.932;2024-03-08T02:17:02;1.20;99.90
7174;DHT22;3628;48.654;8.932;2024-03-08T02:19:28;1.20;99.90
7174;DHT22;3628;48.654;8.932;2024-03-08T02:21:53;1.20;99.90
7174;DHT22;3628;48.654;8.932;2024-03-08T02:24:19;1.10;99.90
7174;DHT22;3628;48.654;8.932;2024-03-08T02:26:45;1.00;99.90
7174;DHT22;3628;48.654;8.932;2024-03-08T02:29:11;1.00;99.90
7174;DHT22;3628;48.654;8.932;2024-03-08T02:31:37;1.00;99.90
7174;DHT22;3628;48.654;8.932;2024-03-08T02:34:04;1.00;99.90
7174;DHT22;3628;48.654;8.932;2024-03-08T02:36:30;1.00;99.90
7174;DHT22;3628;48.654;8.932;2024-03-08T02:39:02;1.00;99.90
7174;DHT22;3628;48.654;8.932;2024-03-08T02:41:27;1.00;99.90
7174;DHT22;3628;48.654;8.932;2024-03-08T02:43:53;0.90;99.90
7174;DHT22;3628;48.654;8.932;2024-03-08T02:46:20;0.90;99.90
7174;DHT22;3628;48.654;8.932;2024-03-08T02:48:46;0.80;99.90
7174;DHT22;3628;48.654;8.932;2024-03-08T02:51:12;0.80;99.90
7174;DHT22;3628;48.654;8.932;2024-03-08T02:53:38;0.70;99.90
7174;DHT22;3628;48.654;8.932;2024-03-08T02:56:04;0.70;99.90
7174;DHT22;3628;48.654;8.932;2024-03-08T02:58:33;0.70;99.90
7174;DHT22;3628;48.654;8.932;2024-03-08T03:00:59;0.70;99.90
7174;DHT22;3628;48.654;8.932;2024-03-08T03:03:25;0.70;99.90
7174;DHT22;3628;48.654;8.932;2024-03-08T03:05:52;0.70;99.90
7174;DHT22;3628;48.654;8.932;2024-03-08T03:08:21;0.70;99.90
7174;DHT22;3628;48.654;8.932;2024-03-08T03:10:46;0.70;99.90
7174;DHT22;3628;48.654;8.932;2024-03-08T03:13:12;0.70;99.90
7174;DHT22;3628;48.654;8.932;2024-03-08T03:15:39;0.60;99.90
7174;DHT22;3628;48.654;8.932;2024-03-08T03:18:07;0.60;99.90
7174;DHT22;3628;48.654;8.932;2024-03-08T03:20:33;0.70;99.90
7174;DHT22;3628;48.654;8.932;2024-03-08T03:23:02;0.70;99.90
7174;DHT22;3628;48.654;8.932;2024-03-08T03:25:28;0.60;99.90
7174;DHT22;3628;48.654;8.932;2024-03-08T03:27:59;0.60;99.90
7174;DHT22;3628;48.654;8.932;2024-03-08T03:30:25;0.60;99.90
7174;DHT22;3628;48.654;8.932;2024-03-08T03:32:52;0.60;99.90
7174;DHT22;3628;48.654;8.932;2024-03-08T03:35:18;0.50;99.90
7174;DHT22;3628;48.654;8.932;2024-03-08T03:37:46;0.50;99.90
7174;DHT22;3628;48.654;8.932;2024-03-08T03:40:27;0.50;99.90
7174;DHT22;3628;48.654;8.932;2024-03-08T03:42:52;0.50;99.90
7174;DHT22;3628;48.654;8.932;2024-03-08T03:45:18;0.50;99.90
7174;DHT22;3628;48.654;8.932;2024-03-08T03:47:45;0.50;99.90
7174;DHT22;3628;48.654;8.932;2024-03-08T03:50:11;0.50;99.90
7174;DHT22;3628;48.654;8.932;2024-03-08T03:52:37;0.50;99.90
7174;DHT22;3628;48.654;8.932;2024-03-08T03:55:03;0.40;99.90
7174;DHT22;3628;48.654;8.932;2024-03-08T03:57:30;0.40;99.90
7174;DHT22;3628;48.654;8.932;2024-03-08T03:59:55;0.50;99.90
7174;DHT22;3628;48.654;8.932;2024-03-08T04:02:22;0.50;99.90
7174;DHT22;3628;48.654;8.932;2024-03-08T04:04:48;0.40;99.90
7174;DHT22;3628;48.654;8.932;2024-03-08T04:07:14;0.40;99.90
7174;DHT22;3628;48.654;8.932;2024-03-08T04:09:40;0.40;99.90
7174;DHT22;3628;48.654;8.932;2024-03-08T04:12:06;0.40;99.90
7174;DHT22;3628;48.654;8.932;2024-03-08T04:14:32;0.40;99.90
7174;DHT22;3628;48.654;8.932;2024-03-08T04:16:58;0.40;99.90
7174;DHT22;3628;48.654;8.932;2024-03-08T04:19:23;0.40;99.90
7174;DHT22;3628;48.654;8.932;2024-03-08T04:21:49;0.40;99.90
7174;DHT22;3628;48.654;8.932;2024-03-08T04:24:15;0.40;99.90
7174;DHT22;3628;48.654;8.932;2024-03-08T04:26:42;0.40;99.90
7174;DHT22;3628;48.654;8.932;2024-03-08T04:29:08;0.40;99.90
7174;DHT22;3628;48.654;8.932;2024-03-08T04:31:33;0.40;99.90
7174;DHT22;3628;48.654;8.932;2024-03-08T04:33:59;0.40;99.90
7174;DHT22;3628;48.654;8.932;2024-03-08T04:36:24;0.40;99.90
7174;DHT22;3628;48.654;8.932;2024-03-08T04:38:50;0.40;99.90
7174;DHT22;3628;48.654;8.932;2024-03-08T04:41:17;0.40;99.90
7174;DHT22;3628;48.654;8.932;2024-03-08T04:43:43;0.30;99.90
7174;DHT22;3628;48.654;8.932;2024-03-08T04:46:08;0.30;99.90
7174;DHT22;3628;48.654;8.932;2024-03-08T04:48:34;0.30;99.90
7174;DHT22;3628;48.654;8.932;2024-03-08T04:51:02;0.30;99.90
7174;DHT22;3628;48.654;8.932;2024-03-08T04:53:29;0.30;99.90
7174;DHT22;3628;48.654;8.932;2024-03-08T04:55:54;0.30;99.90
7174;DHT22;3628;48.654;8.932;2024-03-08T04:58:23;0.30;99.90
7174;DHT22;3628;48.654;8.932;2024-03-08T05:00:48;0.20;99.90
7174;DHT22;3628;48.654;8.932;2024-03-08T05:03:14;0.20;99.90
7174;DHT22;3628;48.654;8.932;2024-03-08T05:05:40;0.20;99.90
7174;DHT22;3628;48.654;8.932;2024-03-08T05:08:05;0.10;99.90
7174;DHT22;3628;48.654;8.932;2024-03-08T05:10:31;0.10;99.90
7174;DHT22;3628;48.654;8.932;2024-03-08T05:12:57;0.10;99.90
7174;DHT22;3628;48.654;8.932;2024-03-08T05:15:23;0.10;99.90
7174;DHT22;3628;48.654;8.932;2024-03-08T05:17:49;0.00;99.90
7174;DHT22;3628;48.654;8.932;2024-03-08T05:20:15;0.10;99.90
7174;DHT22;3628;48.654;8.932;2024-03-08T05:22:42;0.00;99.90
7174;DHT22;3628;48.654;8.932;2024-03-08T05:25:08;0.00;99.90
7174;DHT22;3628;48.654;8.932;2024-03-08T05:27:35;0.00;99.90
7174;DHT22;3628;48.654;8.932;2024-03-08T05:30:02;0.10;99.90
7174;DHT22;3628;48.654;8.932;2024-03-08T05:32:29;0.00;99.90
7174;DHT22;3628;48.654;8.932;2024-03-08T05:34:55;0.10;99.90
7174;DHT22;3628;48.654;8.932;2024-03-08T05:37:20;0.00;99.90
7174;DHT22;3628;48.654;8.932;2024-03-08T05:39:46;0.10;99.90
7174;DHT22;3628;48.654;8.932;2024-03-08T05:42:11;0.10;99.90
7174;DHT22;3628;48.654;8.932;2024-03-08T05:44:37;0.10;99.90
7174;DHT22;3628;48.654;8.932;2024-03-08T05:47:02;0.10;99.90
7174;DHT22;3628;48.654;8.932;2024-03-08T05:49:28;0.10;99.90
7174;DHT22;3628;48.654;8.932;2024-03-08T05:51:53;0.10;99.90
7174;DHT22;3628;48.654;8.932;2024-03-08T05:54:19;0.10;99.90
7174;DHT22;3628;48.654;8.932;2024-03-08T05:56:47;0.10;99.90
7174;DHT22;3628;48.654;8.932;2024-03-08T05:59:13;0.00;99.90
7174;DHT22;3628;48.654;8.932;2024-03-08T06:01:38;0.10;99.90
7174;DHT22;3628;48.654;8.932;2024-03-08T06:04:06;0.00;99.90
7174;DHT22;3628;48.654;8.932;2024-03-08T06:06:32;0.10;99.90
7174;DHT22;3628;48.654;8.932;2024-03-08T06:08:58;0.10;99.90
7174;DHT22;3628;48.654;8.932;2024-03-08T06:11:25;0.20;99.90
7174;DHT22;3628;48.654;8.932;2024-03-08T06:13:52;0.30;99.90
7174;DHT22;3628;48.654;8.932;2024-03-08T06:16:26;0.40;99.90
7174;DHT22;3628;48.654;8.932;2024-03-08T06:18:55;0.40;99.90
7174;DHT22;3628;48.654;8.932;2024-03-08T06:21:21;0.40;99.90
7174;DHT22;3628;48.654;8.932;2024-03-08T06:23:48;0.50;99.90
7174;DHT22;3628;48.654;8.932;2024-03-08T06:26:13;0.50;99.90
7174;DHT22;3628;48.654;8.932;2024-03-08T06:28:39;0.60;99.90
7174;DHT22;3628;48.654;8.932;2024-03-08T06:31:04;0.70;99.90
7174;DHT22;3628;48.654;8.932;2024-03-08T06:33:30;0.80;99.90
7174;DHT22;3628;48.654;8.932;2024-03-08T06:35:57;1.00;99.90
7174;DHT22;3628;48.654;8.932;2024-03-08T06:38:26;1.10;99.90
7174;DHT22;3628;48.654;8.932;2024-03-08T06:40:52;1.20;99.90
7174;DHT22;3628;48.654;8.932;2024-03-08T06:43:18;1.30;99.90
7174;DHT22;3628;48.654;8.932;2024-03-08T06:45:47;1.40;99.90
7174;DHT22;3628;48.654;8.932;2024-03-08T06:48:19;1.60;99.90
7174;DHT22;3628;48.654;8.932;2024-03-08T06:50:45;1.60;99.90
7174;DHT22;3628;48.654;8.932;2024-03-08T06:53:11;1.70;99.90
7174;DHT22;3628;48.654;8.932;2024-03-08T06:55:37;1.80;99.90
7174;DHT22;3628;48.654;8.932;2024-03-08T06:58:03;1.90;99.90
7174;DHT22;3628;48.654;8.932;2024-03-08T07:00:29;1.90;99.90
7174;DHT22;3628;48.654;8.932;2024-03-08T07:02:59;1.90;99.90
7174;DHT22;3628;48.654;8.932;2024-03-08T07:05:27;2.00;99.90
7174;DHT22;3628;48.654;8.932;2024-03-08T07:07:53;2.10;99.90
7174;DHT22;3628;48.654;8.932;2024-03-08T07:10:23;2.10;99.90
7174;DHT22;3628;48.654;8.932;2024-03-08T07:12:52;2.20;99.90
7174;DHT22;3628;48.654;8.932;2024-03-08T07:15:18;2.20;99.90
7174;DHT22;3628;48.654;8.932;2024-03-08T07:17:45;2.20;99.90
7174;DHT22;3628;48.654;8.932;2024-03-08T07:20:11;2.20;99.90
7174;DHT22;3628;48.654;8.932;2024-03-08T07:22:39;2.20;99.90
7174;DHT22;3628;48.654;8.932;2024-03-08T07:25:05;2.30;99.90
7174;DHT22;3628;48.654;8.932;2024-03-08T07:27:50;2.40;99.90
7174;DHT22;3628;48.654;8.932;2024-03-08T07:30:25;2.50;99.90
7174;DHT22;3628;48.654;8.932;2024-03-08T07:33:09;2.50;99.90
7174;DHT22;3628;48.654;8.932;2024-03-08T07:35:37;2.60;99.90
7174;DHT22;3628;48.654;8.932;2024-03-08T07:38:12;2.60;99.90
7174;DHT22;3628;48.654;8.932;2024-03-08T07:40:39;2.80;99.90
7174;DHT22;3628;48.654;8.932;2024-03-08T07:43:09;2.80;99.90
7174;DHT22;3628;48.654;8.932;2024-03-08T07:45:36;2.90;99.90
7174;DHT22;3628;48.654;8.932;2024-03-08T07:48:01;3.00;99.90
7174;DHT22;3628;48.654;8.932;2024-03-08T07:50:28;3.10;99.90
7174;DHT22;3628;48.654;8.932;2024-03-08T07:52:54;3.20;99.90
7174;DHT22;3628;48.654;8.932;2024-03-08T07:55:20;3.30;99.90
7174;DHT22;3628;48.654;8.932;2024-03-08T07:57:45;3.30;99.90
7174;DHT22;3628;48.654;8.932;2024-03-08T08:00:13;3.40;99.90
7174;DHT22;3628;48.654;8.932;2024-03-08T08:02:43;3.40;99.90
7174;DHT22;3628;48.654;8.932;2024-03-08T08:05:11;3.40;99.90
7174;DHT22;3628;48.654;8.932;2024-03-08T08:07:36;3.50;99.90
7174;DHT22;3628;48.654;8.932;2024-03-08T08:10:02;3.50;99.90
7174;DHT22;3628;48.654;8.932;2024-03-08T08:12:27;3.50;99.90
7174;DHT22;3628;48.654;8.932;2024-03-08T08:14:54;3.50;99.90
7174;DHT22;3628;48.654;8.932;2024-03-08T08:17:20;3.50;99.90
7174;DHT22;3628;48.654;8.932;2024-03-08T08:19:45;3.50;99.90
7174;DHT22;3628;48.654;8.932;2024-03-08T08:22:11;3.50;99.90
7174;DHT22;3628;48.654;8.932;2024-03-08T08:24:37;3.50;99.90
7174;DHT22;3628;48.654;8.932;2024-03-08T08:27:03;3.60;99.90
7174;DHT22;3628;48.654;8.932;2024-03-08T08:29:29;3.60;99.90
7174;DHT22;3628;48.654;8.932;2024-03-08T08:31:57;3.60;99.90
7174;DHT22;3628;48.654;8.932;2024-03-08T08:34:24;3.60;99.90
7174;DHT22;3628;48.654;8.932;2024-03-08T08:36:52;3.70;99.90
7174;DHT22;3628;48.654;8.932;2024-03-08T08:39:18;3.70;99.90
7174;DHT22;3628;48.654;8.932;2024-03-08T08:41:44;3.80;99.90
7174;DHT22;3628;48.654;8.932;2024-03-08T08:44:09;3.90;99.90
7174;DHT22;3628;48.654;8.932;2024-03-08T08:46:37;3.90;99.90
7174;DHT22;3628;48.654;8.932;2024-03-08T08:49:04;4.00;99.90
7174;DHT22;3628;48.654;8.932;2024-03-08T08:51:30;4.00;99.90
7174;DHT22;3628;48.654;8.932;2024-03-08T08:53:56;4.00;99.90
7174;DHT22;3628;48.654;8.932;2024-03-08T08:56:21;4.00;99.90
7174;DHT22;3628;48.654;8.932;2024-03-08T08:58:47;4.10;99.90
7174;DHT22;3628;48.654;8.932;2024-03-08T09:01:14;4.00;99.90
7174;DHT22;3628;48.654;8.932;2024-03-08T09:03:40;4.10;99.90
7174;DHT22;3628;48.654;8.932;2024-03-08T09:06:09;4.20;99.90
7174;DHT22;3628;48.654;8.932;2024-03-08T09:08:36;4.10;99.90
7174;DHT22;3628;48.654;8.932;2024-03-08T09:11:01;4.10;99.90
7174;DHT22;3628;48.654;8.932;2024-03-08T09:13:27;4.10;99.90
7174;DHT22;3628;48.654;8.932;2024-03-08T09:15:53;4.10;99.90
7174;DHT22;3628;48.654;8.932;2024-03-08T09:18:18;4.30;99.90
7174;DHT22;3628;48.654;8.932;2024-03-08T09:20:44;4.20;99.90
7174;DHT22;3628;48.654;8.932;2024-03-08T09:23:10;4.20;99.90
7174;DHT22;3628;48.654;8.932;2024-03-08T09:25:35;4.20;99.90
7174;DHT22;3628;48.654;8.932;2024-03-08T09:28:01;4.20;99.90
7174;DHT22;3628;48.654;8.932;2024-03-08T09:30:27;4.20;99.90
7174;DHT22;3628;48.654;8.932;2024-03-08T09:32:53;4.30;99.90
7174;DHT22;3628;48.654;8.932;2024-03-08T09:35:19;4.40;99.90
7174;DHT22;3628;48.654;8.932;2024-03-08T09:37:45;4.50;99.90
7174;DHT22;3628;48.654;8.932;2024-03-08T09:40:13;4.60;99.90
7174;DHT22;3628;48.654;8.932;2024-03-08T09:42:41;4.70;99.90
7174;DHT22;3628;48.654;8.932;2024-03-08T09:45:11;4.70;99.90
7174;DHT22;3628;48.654;8.932;2024-03-08T09:47:42;4.70;99.90
7174;DHT22;3628;48.654;8.932;2024-03-08T09:50:08;4.70;99.90
7174;DHT22;3628;48.654;8.932;2024-03-08T09:52:41;4.80;99.90
7174;DHT22;3628;48.654;8.932;2024-03-08T09:55:09;4.70;99.90
7174;DHT22;3628;48.654;8.932;2024-03-08T09:57:40;4.50;99.90
7174;DHT22;3628;48.654;8.932;2024-03-08T10:00:06;4.60;99.90
7174;DHT22;3628;48.654;8.932;2024-03-08T10:02:45;4.80;99.90
7174;DHT22;3628;48.654;8.932;2024-03-08T10:05:12;4.90;99.90
7174;DHT22;3628;48.654;8.932;2024-03-08T10:07:38;5.00;99.90
7174;DHT22;3628;48.654;8.932;2024-03-08T10:10:04;5.00;99.90
7174;DHT22;3628;48.654;8.932;2024-03-08T10:12:29;5.10;99.90
7174;DHT22;3628;48.654;8.932;2024-03-08T10:14:58;5.00;99.90
7174;DHT22;3628;48.654;8.932;2024-03-08T10:17:24;4.90;99.90
7174;DHT22;3628;48.654;8.932;2024-03-08T10:19:50;4.90;99.90
7174;DHT22;3628;48.654;8.932;2024-03-08T10:22:19;5.00;99.90
7174;DHT22;3628;48.654;8.932;2024-03-08T10:24:46;5.00;99.90
7174;DHT22;3628;48.654;8.932;2024-03-08T10:27:12;4.90;99.90
7174;DHT22;3628;48.654;8.932;2024-03-08T10:29:37;4.90;99.90
7174;DHT22;3628;48.654;8.932;2024-03-08T10:32:08;4.90;99.90
7174;DHT22;3628;48.654;8.932;2024-03-08T10:34:34;5.10;99.90
7174;DHT22;3628;48.654;8.932;2024-03-08T10:37:04;5.10;99.90
7174;DHT22;3628;48.654;8.932;2024-03-08T10:39:35;5.20;99.90
7174;DHT22;3628;48.654;8.932;2024-03-08T10:42:03;5.30;99.90
7174;DHT22;3628;48.654;8.932;2024-03-08T10:49:32;5.20;99.90
7174;DHT22;3628;48.654;8.932;2024-03-08T10:52:02;5.30;99.90
7174;DHT22;3628;48.654;8.932;2024-03-08T10:54:29;5.20;99.90
7174;DHT22;3628;48.654;8.932;2024-03-08T10:56:57;5.40;99.90
7174;DHT22;3628;48.654;8.932;2024-03-08T10:59:25;5.40;99.90
7174;DHT22;3628;48.654;8.932;2024-03-08T11:01:52;5.60;99.90
7174;DHT22;3628;48.654;8.932;2024-03-08T11:04:18;5.70;99.90
7174;DHT22;3628;48.654;8.932;2024-03-08T11:06:49;5.90;99.90
7174;DHT22;3628;48.654;8.932;2024-03-08T11:09:36;6.00;99.90
7174;DHT22;3628;48.654;8.932;2024-03-08T11:12:26;6.20;99.90
7174;DHT22;3628;48.654;8.932;2024-03-08T11:14:55;6.40;99.90
7174;DHT22;3628;48.654;8.932;2024-03-08T11:19:56;6.70;99.90
7174;DHT22;3628;48.654;8.932;2024-03-08T11:22:23;6.90;99.90
7174;DHT22;3628;48.654;8.932;2024-03-08T11:24:52;6.90;99.90
7174;DHT22;3628;48.654;8.932;2024-03-08T11:27:18;7.10;99.90
7174;DHT22;3628;48.654;8.932;2024-03-08T11:29:58;7.40;99.90
7174;DHT22;3628;48.654;8.932;2024-03-08T11:32:27;7.60;99.90
7174;DHT22;3628;48.654;8.932;2024-03-08T11:34:54;7.60;99.90
7174;DHT22;3628;48.654;8.932;2024-03-08T11:37:20;7.70;99.90
7174;DHT22;3628;48.654;8.932;2024-03-08T11:39:54;7.80;99.90
7174;DHT22;3628;48.654;8.932;2024-03-08T11:42:25;7.80;99.90
7174;DHT22;3628;48.654;8.932;2024-03-08T11:44:52;8.00;99.90
7174;DHT22;3628;48.654;8.932;2024-03-08T11:47:18;8.10;99.90
7174;DHT22;3628;48.654;8.932;2024-03-08T11:49:44;8.00;99.90
7174;DHT22;3628;48.654;8.932;2024-03-08T11:52:12;8.10;99.90
7174;DHT22;3628;48.654;8.932;2024-03-08T11:54:40;8.10;99.90
7174;DHT22;3628;48.654;8.932;2024-03-08T11:57:06;8.00;99.90
7174;DHT22;3628;48.654;8.932;2024-03-08T11:59:32;8.10;99.90
7174;DHT22;3628;48.654;8.932;2024-03-08T12:02:05;8.30;99.90
7174;DHT22;3628;48.654;8.932;2024-03-08T12:04:32;8.40;99.90
7174;DHT22;3628;48.654;8.932;2024-03-08T12:07:01;8.60;99.90
7174;DHT22;3628;48.654;8.932;2024-03-08T12:09:37;8.90;99.90
7174;DHT22;3628;48.654;8.932;2024-03-08T12:12:04;9.10;99.90
7174;DHT22;3628;48.654;8.932;2024-03-08T12:14:33;9.00;99.90
7174;DHT22;3628;48.654;8.932;2024-03-08T12:16:59;9.20;99.90
7174;DHT22;3628;48.654;8.932;2024-03-08T12:19:30;9.40;99.90
7174;DHT22;3628;48.654;8.932;2024-03-08T12:21:55;9.70;99.90
7174;DHT22;3628;48.654;8.932;2024-03-08T12:24:21;9.90;99.90
7174;DHT22;3628;48.654;8.932;2024-03-08T12:26:48;9.90;99.90
7174;DHT22;3628;48.654;8.932;2024-03-08T12:29:27;10.10;99.90
7174;DHT22;3628;48.654;8.932;2024-03-08T12:31:58;10.20;99.90
7174;DHT22;3628;48.654;8.932;2024-03-08T12:34:26;10.40;99.90
7174;DHT22;3628;48.654;8.932;2024-03-08T12:36:53;10.50;99.90
7174;DHT22;3628;48.654;8.932;2024-03-08T12:39:21;10.60;99.90
7174;DHT22;3628;48.654;8.932;2024-03-08T12:41:56;10.60;99.90
7174;DHT22;3628;48.654;8.932;2024-03-08T12:44:25;10.80;99.90
7174;DHT22;3628;48.654;8.932;2024-03-08T12:46:51;11.10;99.90
7174;DHT22;3628;48.654;8.932;2024-03-08T12:49:19;10.80;99.90
7174;DHT22;3628;48.654;8.932;2024-03-08T12:51:47;11.00;99.90
7174;DHT22;3628;48.654;8.932;2024-03-08T12:54:13;10.90;99.90
7174;DHT22;3628;48.654;8.932;2024-03-08T12:56:38;11.00;99.90
7174;DHT22;3628;48.654;8.932;2024-03-08T12:59:06;10.90;99.90
7174;DHT22;3628;48.654;8.932;2024-03-08T13:01:33;11.00;99.90
7174;DHT22;3628;48.654;8.932;2024-03-08T13:03:59;10.80;99.90
7174;DHT22;3628;48.654;8.932;2024-03-08T13:06:27;10.90;99.90
7174;DHT22;3628;48.654;8.932;2024-03-08T13:08:54;10.90;99.90
7174;DHT22;3628;48.654;8.932;2024-03-08T13:11:21;10.80;99.90
7174;DHT22;3628;48.654;8.932;2024-03-08T13:13:47;10.70;99.90
7174;DHT22;3628;48.654;8.932;2024-03-08T13:16:13;10.50;99.90
7174;DHT22;3628;48.654;8.932;2024-03-08T13:18:43;10.40;99.90
7174;DHT22;3628;48.654;8.932;2024-03-08T13:21:09;10.40;99.90
7174;DHT22;3628;48.654;8.932;2024-03-08T13:23:36;10.60;99.90
7174;DHT22;3628;48.654;8.932;2024-03-08T13:26:06;10.80;99.90
7174;DHT22;3628;48.654;8.932;2024-03-08T13:28:32;11.00;99.90
7174;DHT22;3628;48.654;8.932;2024-03-08T13:31:03;11.10;99.90
7174;DHT22;3628;48.654;8.932;2024-03-08T13:33:28;11.00;99.90
7174;DHT22;3628;48.654;8.932;2024-03-08T13:35:54;11.10;99.90
7174;DHT22;3628;48.654;8.932;2024-03-08T13:38:20;11.20;99.90
7174;DHT22;3628;48.654;8.932;2024-03-08T13:40:46;11.20;99.90
7174;DHT22;3628;48.654;8.932;2024-03-08T13:43:17;11.10;99.90
7174;DHT22;3628;48.654;8.932;2024-03-08T13:45:43;11.20;99.90
7174;DHT22;3628;48.654;8.932;2024-03-08T13:48:09;11.30;99.90
7174;DHT22;3628;48.654;8.932;2024-03-08T13:50:38;11.40;99.90
7174;DHT22;3628;48.654;8.932;2024-03-08T13:53:04;11.40;99.90
7174;DHT22;3628;48.654;8.932;2024-03-08T13:55:29;11.30;99.90
7174;DHT22;3628;48.654;8.932;2024-03-08T13:57:56;11.20;99.90
7174;DHT22;3628;48.654;8.932;2024-03-08T14:00:22;10.90;99.90
7174;DHT22;3628;48.654;8.932;2024-03-08T14:02:50;10.90;99.90
7174;DHT22;3628;48.654;8.932;2024-03-08T14:05:15;11.00;99.90
7174;DHT22;3628;48.654;8.932;2024-03-08T14:07:41;11.10;99.90
7174;DHT22;3628;48.654;8.932;2024-03-08T14:10:07;11.10;99.90
7174;DHT22;3628;48.654;8.932;2024-03-08T14:12:35;11.10;99.90
7174;DHT22;3628;48.654;8.932;2024-03-08T14:15:01;11.00;99.90
7174;DHT22;3628;48.654;8.932;2024-03-08T14:17:26;11.00;99.90
7174;DHT22;3628;48.654;8.932;2024-03-08T14:19:53;11.00;99.90
7174;DHT22;3628;48.654;8.932;2024-03-08T14:22:20;11.00;99.90
7174;DHT22;3628;48.654;8.932;2024-03-08T14:24:45;10.80;99.90
7174;DHT22;3628;48.654;8.932;2024-03-08T14:27:11;10.70;99.90
7174;DHT22;3628;48.654;8.932;2024-03-08T14:29:38;10.70;99.90
7174;DHT22;3628;48.654;8.932;2024-03-08T14:32:07;10.80;99.90
7174;DHT22;3628;48.654;8.932;2024-03-08T14:34:33;10.90;99.90
7174;DHT22;3628;48.654;8.932;2024-03-08T14:37:00;10.80;99.90
7174;DHT22;3628;48.654;8.932;2024-03-08T14:39:26;10.90;99.90
7174;DHT22;3628;48.654;8.932;2024-03-08T14:41:55;10.90;99.90
7174;DHT22;3628;48.654;8.932;2024-03-08T14:44:22;10.90;99.90
7174;DHT22;3628;48.654;8.932;2024-03-08T14:46:55;10.90;99.90
7174;DHT22;3628;48.654;8.932;2024-03-08T14:49:22;10.90;99.90
7174;DHT22;3628;48.654;8.932;2024-03-08T14:51:48;11.00;99.90
7174;DHT22;3628;48.654;8.932;2024-03-08T14:54:13;11.00;99.90
7174;DHT22;3628;48.654;8.932;2024-03-08T14:56:39;11.00;99.90
7174;DHT22;3628;48.654;8.932;2024-03-08T14:59:08;11.00;99.90
7174;DHT22;3628;48.654;8.932;2024-03-08T15:01:35;10.80;99.90
7174;DHT22;3628;48.654;8.932;2024-03-08T15:04:02;10.80;99.90
7174;DHT22;3628;48.654;8.932;2024-03-08T15:06:40;10.80;99.90
7174;DHT22;3628;48.654;8.932;2024-03-08T15:09:06;10.80;99.90
7174;DHT22;3628;48.654;8.932;2024-03-08T15:11:47;10.70;99.90
7174;DHT22;3628;48.654;8.932;2024-03-08T15:14:15;10.80;99.90
7174;DHT22;3628;48.654;8.932;2024-03-08T15:16:44;10.80;99.90
7174;DHT22;3628;48.654;8.932;2024-03-08T15:19:10;10.60;99.90
7174;DHT22;3628;48.654;8.932;2024-03-08T15:21:37;10.60;99.90
7174;DHT22;3628;48.654;8.932;2024-03-08T15:24:03;10.40;99.90
7174;DHT22;3628;48.654;8.932;2024-03-08T15:26:29;10.30;99.90
7174;DHT22;3628;48.654;8.932;2024-03-08T15:28:58;10.40;99.90
7174;DHT22;3628;48.654;8.932;2024-03-08T15:31:25;10.30;99.90
7174;DHT22;3628;48.654;8.932;2024-03-08T15:33:51;10.10;99.90
7174;DHT22;3628;48.654;8.932;2024-03-08T15:36:24;10.10;99.90
7174;DHT22;3628;48.654;8.932;2024-03-08T15:38:53;10.00;99.90
7174;DHT22;3628;48.654;8.932;2024-03-08T15:41:19;10.00;99.90
7174;DHT22;3628;48.654;8.932;2024-03-08T15:43:46;10.00;99.90
7174;DHT22;3628;48.654;8.932;2024-03-08T15:46:11;10.00;99.90
7174;DHT22;3628;48.654;8.932;2024-03-08T15:48:38;10.00;99.90
7174;DHT22;3628;48.654;8.932;2024-03-08T15:51:07;10.00;99.90
7174;DHT22;3628;48.654;8.932;2024-03-08T15:53:35;9.90;99.90
7174;DHT22;3628;48.654;8.932;2024-03-08T15:56:02;9.80;99.90
7174;DHT22;3628;48.654;8.932;2024-03-08T15:58:35;9.90;99.90
7174;DHT22;3628;48.654;8.932;2024-03-08T16:01:06;9.80;99.90
7174;DHT22;3628;48.654;8.932;2024-03-08T16:03:32;9.80;99.90
7174;DHT22;3628;48.654;8.932;2024-03-08T16:05:58;9.70;99.90
7174;DHT22;3628;48.654;8.932;2024-03-08T16:08:24;9.80;99.90
7174;DHT22;3628;48.654;8.932;2024-03-08T16:10:52;9.70;99.90
7174;DHT22;3628;48.654;8.932;2024-03-08T16:13:26;9.70;99.90
7174;DHT22;3628;48.654;8.932;2024-03-08T16:15:53;9.70;99.90
7174;DHT22;3628;48.654;8.932;2024-03-08T16:18:20;9.60;99.90
7174;DHT22;3628;48.654;8.932;2024-03-08T16:20:47;9.50;99.90